createdAt,value
2019-05-21T00:00:30.745Z,37.93
2019-05-21T00:03:00.910Z,34.50
2019-05-21T00:05:31.075Z,34.43
2019-05-21T00:08:01.259Z,32.77
2019-05-21T00:10:31.497Z,31.67
2019-05-21T00:13:04.120Z,32.77
2019-05-21T00:15:37.323Z,33.17
2019-05-21T00:18:07.513Z,30.57
2019-05-21T00:20:37.668Z,26.13
2019-05-21T00:23:07.957Z,26.97
2019-05-21T00:25:38.605Z,32.53
2019-05-21T00:28:41.807Z,24.60
2019-05-21T00:31:47.801Z,23.37
2019-05-21T00:34:53.680Z,26.83
2019-05-21T00:38:00.172Z,24.47
2019-05-21T00:41:06.007Z,24.37
2019-05-21T00:43:51.138Z,24.07
2019-05-21T00:46:21.383Z,25.63
2019-05-21T00:48:51.982Z,26.30
2019-05-21T00:51:23.770Z,26.57
2019-05-21T00:53:53.900Z,27.37
2019-05-21T00:56:24.069Z,26.10
2019-05-21T00:58:54.262Z,25.27
2019-05-21T01:01:24.903Z,26.20
2019-05-21T01:03:55.065Z,24.97
2019-05-21T01:06:25.741Z,28.27
2019-05-21T01:08:57.967Z,28.60
2019-05-21T01:11:28.147Z,29.13
2019-05-21T01:13:59.868Z,29.07
2019-05-21T01:16:30.353Z,31.43
2019-05-21T01:19:00.529Z,26.73
2019-05-21T01:21:30.694Z,28.67
2019-05-21T01:24:02.308Z,25.57
2019-05-21T01:26:32.911Z,28.27
2019-05-21T01:29:03.478Z,27.73
2019-05-21T01:31:33.651Z,26.03
2019-05-21T01:34:03.851Z,25.27
2019-05-21T01:36:34.456Z,26.57
2019-05-21T01:39:06.258Z,27.83
2019-05-21T01:41:36.427Z,30.43
2019-05-21T01:44:06.577Z,29.57
2019-05-21T01:46:36.774Z,25.77
2019-05-21T01:49:07.393Z,24.67
2019-05-21T01:51:37.561Z,26.40
2019-05-21T01:54:09.055Z,22.40
2019-05-21T01:56:39.203Z,24.60
2019-05-21T01:59:09.354Z,24.77
2019-05-21T02:01:39.629Z,25.23
2019-05-21T02:04:10.254Z,22.57
2019-05-21T02:06:40.403Z,23.83
2019-05-21T02:09:11.550Z,25.83
2019-05-21T02:11:41.854Z,28.70
2019-05-21T02:14:13.824Z,24.70
2019-05-21T02:16:43.966Z,26.57
2019-05-21T02:19:14.163Z,24.60
2019-05-21T02:21:44.350Z,25.73
2019-05-21T02:24:14.968Z,27.40
2019-05-21T02:26:45.678Z,29.87
2019-05-21T02:29:15.838Z,27.90
2019-05-21T02:31:46.028Z,27.47
2019-05-21T02:34:16.628Z,27.43
2019-05-21T02:36:47.775Z,25.37
2019-05-21T02:39:17.949Z,26.67
2019-05-21T02:41:48.097Z,26.50
2019-05-21T02:44:19.508Z,28.93
2019-05-21T02:46:50.207Z,30.20
2019-05-21T02:49:20.476Z,25.00
2019-05-21T02:51:50.646Z,27.43
2019-05-21T02:54:37.477Z,27.60
2019-05-21T02:56:53.256Z,29.27
2019-05-21T02:59:24.843Z,30.10
2019-05-21T03:02:09.811Z,28.03
2019-05-21T03:04:40.033Z,26.30
2019-05-21T03:07:19.768Z,28.00
2019-05-21T03:09:50.435Z,25.83
2019-05-21T03:12:20.524Z,29.37
2019-05-21T03:14:53.104Z,29.03
2019-05-21T03:17:23.718Z,26.73
2019-05-21T03:19:53.890Z,31.63
2019-05-21T03:22:24.049Z,31.00
2019-05-21T03:24:54.207Z,26.40
2019-05-21T03:27:25.010Z,27.97
2019-05-21T03:29:55.168Z,30.17
2019-05-21T03:32:25.342Z,23.60
2019-05-21T03:34:55.597Z,25.30
2019-05-21T03:37:26.321Z,28.97
2019-05-21T03:39:56.589Z,23.33
2019-05-21T03:42:26.756Z,28.07
2019-05-21T03:45:00.508Z,24.93
2019-05-21T03:47:29.475Z,25.97
2019-05-21T03:50:00.872Z,23.57
2019-05-21T03:52:30.990Z,28.23
2019-05-21T03:55:03.088Z,28.53
2019-05-21T03:57:33.031Z,22.73
2019-05-21T04:00:03.762Z,24.33
2019-05-21T04:02:33.941Z,22.10
2019-05-21T04:05:04.429Z,23.37
2019-05-21T04:07:34.754Z,22.47
2019-05-21T04:10:06.929Z,23.43
2019-05-21T04:12:37.514Z,19.87
2019-05-21T04:15:11.857Z,19.37
2019-05-21T04:17:54.162Z,20.77
2019-05-21T04:20:24.361Z,16.60
2019-05-21T04:22:55.020Z,18.70
2019-05-21T04:25:25.783Z,15.90
2019-05-21T04:27:55.920Z,17.20
2019-05-21T04:30:26.224Z,17.70
2019-05-21T04:32:56.830Z,18.70
2019-05-21T04:35:27.010Z,20.23
2019-05-21T04:37:57.173Z,16.03
2019-05-21T04:40:27.317Z,15.90
2019-05-21T04:43:01.869Z,15.43
2019-05-21T04:45:31.133Z,18.07
2019-05-21T04:48:01.308Z,15.50
2019-05-21T04:50:31.452Z,18.83
2019-05-21T04:53:01.620Z,16.40
2019-05-21T04:55:33.971Z,20.50
2019-05-21T04:58:04.623Z,23.23
2019-05-21T05:00:36.156Z,27.93
2019-05-21T05:03:06.315Z,31.57
2019-05-21T05:05:36.524Z,30.83
2019-05-21T05:08:06.786Z,32.57
2019-05-21T05:10:37.412Z,30.67
2019-05-21T05:13:08.311Z,37.40
2019-05-21T05:15:39.178Z,38.93
2019-05-21T05:18:09.789Z,32.33
2019-05-21T05:20:40.396Z,36.53
2019-05-21T05:23:10.547Z,36.33
2019-05-21T05:25:40.804Z,37.67
2019-05-21T05:28:11.011Z,40.13
2019-05-21T05:30:41.189Z,38.63
2019-05-21T05:33:12.487Z,42.37
2019-05-21T05:35:43.193Z,41.07
2019-05-21T05:38:13.336Z,45.47
2019-05-21T05:40:43.552Z,43.50
2019-05-21T05:43:13.696Z,42.53
2019-05-21T05:45:43.859Z,42.73
2019-05-21T05:48:15.255Z,45.53
2019-05-21T05:50:47.553Z,44.47
2019-05-21T05:53:17.704Z,50.53
2019-05-21T05:55:47.900Z,48.33
2019-05-21T05:58:18.090Z,46.50
2019-05-21T06:00:48.714Z,44.70
2019-05-21T06:03:20.180Z,47.97
2019-05-21T06:05:50.328Z,48.70
2019-05-21T06:08:20.491Z,44.93
2019-05-21T06:10:50.668Z,46.43
2019-05-21T06:13:21.341Z,46.80
2019-05-21T06:15:51.795Z,43.20
2019-05-21T06:18:21.956Z,46.20
2019-05-21T06:20:52.136Z,50.23
2019-05-21T06:23:22.780Z,46.77
2019-05-21T06:25:53.026Z,43.27
2019-05-21T06:28:23.189Z,46.20
2019-05-21T06:30:53.426Z,47.70
2019-05-21T06:33:24.032Z,47.03
2019-05-21T06:35:55.544Z,50.13
2019-05-21T06:38:25.707Z,47.97
2019-05-21T06:40:56.283Z,48.37
2019-05-21T06:43:27.021Z,48.03
2019-05-21T06:45:57.282Z,44.23
2019-05-21T06:48:27.435Z,44.70
2019-05-21T06:50:57.617Z,45.53
2019-05-21T06:53:27.998Z,42.07
2019-05-21T06:55:58.746Z,38.90
2019-05-21T06:58:28.949Z,42.23
2019-05-21T07:00:59.117Z,42.20
2019-05-21T07:03:29.317Z,40.93
2019-05-21T07:06:00.094Z,41.80
2019-05-21T07:08:34.693Z,43.53
2019-05-21T07:11:04.907Z,41.03
2019-05-21T07:13:35.145Z,38.40
2019-05-21T07:16:07.133Z,42.87
2019-05-21T07:18:41.111Z,42.23
2019-05-21T07:21:09.237Z,44.00
2019-05-21T07:23:39.410Z,49.20
2019-05-21T07:26:11.741Z,44.53
2019-05-21T07:28:41.961Z,46.77
2019-05-21T07:31:12.151Z,45.77
2019-05-21T07:33:42.429Z,41.83
2019-05-21T07:36:13.075Z,45.00
2019-05-21T07:38:53.289Z,45.07
2019-05-21T07:41:15.159Z,45.53
2019-05-21T07:43:45.404Z,42.80
2019-05-21T07:46:16.117Z,42.50
2019-05-21T07:48:46.420Z,44.17
2019-05-21T07:51:16.607Z,41.13
2019-05-21T07:53:46.878Z,47.00
2019-05-21T07:56:17.723Z,39.30
2019-05-21T07:58:48.851Z,42.67
2019-05-21T08:01:19.031Z,44.80
2019-05-21T08:03:49.162Z,41.17
2019-05-21T08:06:19.994Z,42.73
2019-05-21T08:08:50.667Z,40.20
2019-05-21T08:11:22.285Z,36.93
2019-05-21T08:13:52.924Z,95.83
2019-05-21T08:16:25.742Z,149.27
2019-05-21T08:18:56.994Z,42.10
2019-05-21T08:21:27.534Z,41.93
2019-05-21T08:23:57.681Z,40.07
2019-05-21T08:26:27.980Z,37.23
2019-05-21T08:28:58.762Z,38.17
2019-05-21T08:31:29.443Z,41.27
2019-05-21T08:33:59.598Z,39.40
2019-05-21T08:36:29.854Z,40.73
2019-05-21T08:39:00.521Z,39.83
2019-05-21T08:41:31.116Z,39.27
2019-05-21T08:44:01.275Z,37.43
2019-05-21T08:46:31.458Z,36.73
2019-05-21T08:49:03.372Z,39.27
2019-05-21T08:51:33.569Z,38.27
2019-05-21T08:54:05.038Z,40.20
2019-05-21T08:56:35.213Z,35.87
2019-05-21T08:59:05.943Z,38.60
2019-05-21T09:01:36.125Z,41.07
2019-05-21T09:04:06.487Z,38.17
2019-05-21T09:06:36.781Z,37.30
2019-05-21T09:09:07.928Z,38.67
2019-05-21T09:11:38.134Z,40.33
2019-05-21T09:14:08.288Z,34.63
2019-05-21T09:16:39.569Z,35.17
2019-05-21T09:19:10.254Z,28.37
2019-05-21T09:21:41.661Z,28.73
2019-05-21T09:24:11.834Z,24.90
2019-05-21T09:26:42.121Z,26.03
2019-05-21T09:29:12.797Z,26.23
2019-05-21T09:31:43.067Z,24.43
2019-05-21T09:34:13.233Z,28.33
2019-05-21T09:36:43.450Z,26.83
2019-05-21T09:39:14.506Z,25.80
2019-05-21T09:41:44.814Z,24.53
2019-05-21T09:44:15.074Z,30.20
2019-05-21T09:46:45.641Z,73.67
2019-05-21T09:49:16.419Z,30.63
2019-05-21T09:51:46.586Z,42.53
2019-05-21T09:54:17.508Z,27.03
2019-05-21T09:56:47.849Z,29.93
2019-05-21T09:59:46.631Z,26.80
2019-05-21T10:02:20.685Z,27.33
2019-05-21T10:04:51.131Z,25.80
2019-05-21T10:07:38.221Z,25.17
2019-05-21T10:09:53.254Z,23.13
2019-05-21T10:12:23.607Z,26.27
2019-05-21T10:14:54.290Z,23.67
2019-05-21T10:17:24.866Z,23.80
2019-05-21T10:19:58.772Z,20.07
2019-05-21T10:22:28.060Z,22.07
2019-05-21T10:24:58.350Z,23.17
2019-05-21T10:27:28.655Z,22.07
2019-05-21T10:29:59.323Z,20.20
2019-05-21T10:32:29.493Z,19.73
2019-05-21T10:34:59.705Z,22.43
2019-05-21T10:37:29.945Z,20.83
2019-05-21T10:40:00.124Z,18.97
2019-05-21T10:42:31.448Z,20.67
2019-05-21T10:45:02.120Z,19.00
2019-05-21T10:47:32.449Z,20.10
2019-05-21T10:50:02.709Z,21.60
2019-05-21T10:52:32.855Z,21.93
2019-05-21T10:55:03.655Z,22.30
2019-05-21T10:57:35.772Z,22.83
2019-05-21T11:00:10.316Z,22.70
2019-05-21T11:02:49.031Z,21.87
2019-05-21T11:05:28.673Z,22.10
2019-05-21T11:08:21.786Z,66.53
2019-05-21T11:10:29.793Z,23.17
2019-05-21T11:13:01.334Z,20.10
2019-05-21T11:15:31.715Z,19.80
2019-05-21T11:18:11.687Z,21.63
2019-05-21T11:20:35.441Z,20.57
2019-05-21T11:23:07.144Z,21.03
2019-05-21T11:25:38.672Z,22.03
2019-05-21T11:28:09.912Z,18.70
2019-05-21T11:30:40.645Z,19.73
2019-05-21T11:33:10.942Z,24.13
2019-05-21T11:35:41.116Z,20.03
2019-05-21T11:38:11.295Z,22.03
2019-05-21T11:40:42.017Z,24.63
2019-05-21T11:43:12.186Z,19.33
2019-05-21T11:45:42.393Z,22.60
2019-05-21T11:48:12.621Z,24.53
2019-05-21T11:50:47.851Z,21.97
2019-05-21T11:53:18.158Z,22.70
2019-05-21T11:55:48.339Z,20.67
2019-05-21T11:58:20.023Z,18.83
2019-05-21T12:00:51.250Z,20.93
2019-05-21T12:03:22.208Z,22.97
2019-05-21T12:05:52.773Z,19.33
2019-05-21T12:08:23.114Z,23.03
2019-05-21T12:10:53.345Z,22.20
2019-05-21T12:13:24.104Z,22.60
2019-05-21T12:15:54.265Z,24.07
2019-05-21T12:18:26.856Z,22.30
2019-05-21T12:20:57.415Z,22.17
2019-05-21T12:23:28.174Z,21.27
2019-05-21T12:25:58.975Z,20.23
2019-05-21T12:28:29.319Z,24.73
2019-05-21T12:30:59.528Z,23.50
2019-05-21T12:33:34.423Z,25.30
2019-05-21T12:36:02.913Z,23.57
2019-05-21T12:38:33.192Z,23.03
2019-05-21T12:41:03.389Z,25.70
2019-05-21T12:43:34.136Z,23.47
2019-05-21T12:46:04.524Z,24.20
2019-05-21T12:48:34.690Z,26.67
2019-05-21T12:51:05.463Z,24.80
2019-05-21T12:53:37.260Z,23.60
2019-05-21T12:56:07.729Z,21.07
2019-05-21T12:58:37.952Z,22.63
2019-05-21T13:01:08.291Z,24.53
2019-05-21T13:03:39.015Z,22.13
2019-05-21T13:06:09.282Z,25.27
2019-05-21T13:08:39.446Z,22.43
2019-05-21T13:11:09.626Z,23.90
2019-05-21T13:13:40.596Z,24.63
2019-05-21T13:16:10.860Z,27.10
2019-05-21T13:18:42.840Z,28.23
2019-05-21T13:21:13.020Z,26.27
2019-05-21T13:23:43.671Z,27.30
2019-05-21T13:26:13.950Z,26.23
2019-05-21T13:28:44.102Z,28.30
2019-05-21T13:31:15.595Z,26.07
2019-05-21T13:33:46.246Z,28.07
2019-05-21T13:36:18.822Z,30.23
2019-05-21T13:38:50.573Z,30.70
2019-05-21T13:41:20.933Z,28.77
2019-05-21T13:43:51.683Z,35.13
2019-05-21T13:46:22.056Z,37.50
2019-05-21T13:48:52.338Z,33.53
2019-05-21T13:51:22.510Z,35.13
2019-05-21T13:53:53.294Z,34.77
2019-05-21T13:56:23.926Z,32.60
2019-05-21T13:58:54.249Z,33.23
2019-05-21T14:01:39.164Z,33.30
2019-05-21T14:03:56.564Z,33.47
2019-05-21T14:06:27.261Z,32.83
2019-05-21T14:08:58.941Z,29.77
2019-05-21T14:11:29.311Z,32.57
2019-05-21T14:13:59.714Z,29.70
2019-05-21T14:16:29.895Z,29.67
2019-05-21T14:19:01.037Z,33.20
2019-05-21T14:21:31.336Z,32.93
2019-05-21T14:24:01.513Z,29.57
2019-05-21T14:26:32.222Z,31.03
2019-05-21T14:29:03.992Z,31.60
2019-05-21T14:31:34.309Z,27.47
2019-05-21T14:34:04.848Z,27.97
2019-05-21T14:36:35.249Z,31.33
2019-05-21T14:39:14.399Z,35.33
2019-05-21T14:41:45.836Z,30.03
2019-05-21T14:44:15.997Z,25.90
2019-05-21T14:46:46.184Z,30.00
2019-05-21T14:49:16.459Z,30.90
2019-05-21T14:51:48.073Z,31.23
2019-05-21T14:54:26.653Z,32.30
2019-05-21T14:56:51.589Z,29.13
2019-05-21T14:59:21.812Z,28.00
2019-05-21T15:01:52.089Z,30.53
2019-05-21T15:04:23.017Z,27.47
2019-05-21T15:06:55.241Z,29.73
2019-05-21T15:09:25.418Z,27.50
2019-05-21T15:11:55.687Z,28.17
2019-05-21T15:14:25.902Z,25.60
2019-05-21T15:16:56.688Z,22.90
2019-05-21T15:19:27.418Z,22.33
2019-05-21T15:21:57.786Z,23.20
2019-05-21T15:24:27.964Z,22.73
2019-05-21T15:26:58.324Z,21.60
2019-05-21T15:29:29.020Z,20.20
2019-05-21T15:31:59.627Z,21.80
2019-05-21T15:34:29.987Z,22.00
2019-05-21T15:37:00.328Z,23.13
2019-05-21T15:39:30.508Z,21.53
2019-05-21T15:42:00.666Z,20.73
2019-05-21T15:44:31.528Z,21.87
2019-05-21T15:47:02.224Z,19.70
2019-05-21T15:49:36.381Z,22.97
2019-05-21T15:52:04.554Z,22.27
2019-05-21T15:54:34.726Z,22.53
2019-05-21T15:57:04.975Z,24.47
2019-05-21T15:59:35.776Z,24.80
2019-05-21T16:02:06.593Z,20.80
2019-05-21T16:04:36.775Z,22.83
2019-05-21T16:07:06.954Z,24.33
2019-05-21T16:09:37.183Z,21.60
2019-05-21T16:12:07.367Z,20.37
2019-05-21T16:14:38.035Z,23.13
2019-05-21T16:17:08.669Z,23.93
2019-05-21T16:19:39.739Z,21.00
2019-05-21T16:22:10.019Z,22.73
2019-05-21T16:24:40.715Z,22.37
2019-05-21T16:27:10.927Z,20.17
2019-05-21T16:29:41.199Z,18.60
2019-05-21T16:32:11.498Z,24.70
2019-05-21T16:34:41.702Z,22.97
2019-05-21T16:37:12.302Z,22.73
2019-05-21T16:39:42.627Z,21.33
2019-05-21T16:42:13.168Z,22.13
2019-05-21T16:44:43.529Z,24.13
2019-05-21T16:47:14.425Z,21.53
2019-05-21T16:49:44.770Z,20.70
2019-05-21T16:52:15.218Z,21.53
2019-05-21T16:54:45.402Z,25.37
2019-05-21T16:57:15.741Z,21.47
2019-05-21T16:59:46.751Z,21.30
2019-05-21T17:02:16.956Z,21.10
2019-05-21T17:04:47.128Z,23.43
2019-05-21T17:07:17.300Z,22.03
2019-05-21T17:09:48.186Z,21.83
2019-05-21T17:12:18.458Z,21.80
2019-05-21T17:14:50.052Z,21.73
2019-05-21T17:17:21.121Z,24.37
2019-05-21T17:19:52.872Z,25.00
2019-05-21T17:22:24.736Z,22.57
2019-05-21T17:24:54.971Z,21.20
2019-05-21T17:27:25.172Z,24.97
2019-05-21T17:29:55.357Z,25.07
2019-05-21T17:32:26.045Z,23.97
2019-05-21T17:34:56.393Z,22.00
2019-05-21T17:37:26.558Z,25.77
2019-05-21T17:39:56.898Z,24.40
2019-05-21T17:42:27.633Z,24.73
2019-05-21T17:44:57.945Z,25.00
2019-05-21T17:47:28.270Z,26.10
2019-05-21T17:49:58.526Z,25.17
2019-05-21T17:52:29.370Z,26.27
2019-05-21T17:55:01.065Z,21.33
2019-05-21T17:57:34.917Z,25.03
2019-05-21T18:00:06.816Z,25.40
2019-05-21T18:02:37.803Z,28.53
2019-05-21T18:05:09.172Z,28.73
2019-05-21T18:07:41.936Z,26.70
2019-05-21T18:10:13.523Z,24.73
2019-05-21T18:12:44.561Z,24.67
2019-05-21T18:15:15.958Z,24.13
2019-05-21T18:17:46.906Z,26.67
2019-05-21T18:20:20.450Z,25.70
2019-05-21T18:22:51.871Z,25.00
2019-05-21T18:25:23.567Z,27.27
2019-05-21T18:27:54.393Z,24.80
2019-05-21T18:30:25.260Z,23.83
2019-05-21T18:32:55.660Z,26.30
2019-05-21T18:35:25.939Z,24.20
2019-05-21T18:37:56.840Z,24.80
2019-05-21T18:40:27.118Z,32.07
2019-05-21T18:42:57.318Z,25.87
2019-05-21T18:45:28.536Z,27.60
2019-05-21T18:47:59.373Z,27.83
2019-05-21T18:50:36.426Z,26.13
2019-05-21T18:53:01.910Z,26.90
2019-05-21T18:55:32.292Z,25.87
2019-05-21T18:58:03.679Z,25.93
2019-05-21T19:00:35.033Z,27.37
2019-05-21T19:03:05.313Z,27.00
2019-05-21T19:05:35.561Z,28.83
2019-05-21T19:08:06.167Z,25.90
2019-05-21T19:10:36.918Z,25.23
2019-05-21T19:13:07.559Z,26.23
2019-05-21T19:15:37.766Z,28.20
2019-05-21T19:18:08.543Z,23.93
2019-05-21T19:20:40.849Z,26.83
2019-05-21T19:23:11.176Z,26.40
2019-05-21T19:25:41.384Z,24.20
2019-05-21T19:28:11.563Z,24.80
2019-05-21T19:30:42.188Z,23.30
2019-05-21T19:33:12.888Z,23.80
2019-05-21T19:35:43.086Z,27.53
2019-05-21T19:38:13.248Z,22.67
2019-05-21T19:40:43.559Z,24.20
2019-05-21T19:43:13.903Z,23.37
2019-05-21T19:45:44.545Z,24.43
2019-05-21T19:48:14.822Z,27.13
2019-05-21T19:50:45.272Z,24.43
2019-05-21T19:53:15.465Z,25.77
2019-05-21T19:55:47.004Z,23.60
2019-05-21T19:58:17.728Z,23.10
2019-05-21T20:00:53.834Z,24.07
2019-05-21T20:03:24.801Z,24.70
2019-05-21T20:05:56.319Z,23.67
2019-05-21T20:08:27.112Z,24.13
2019-05-21T20:10:59.082Z,24.47
2019-05-21T20:13:32.690Z,31.73
2019-05-21T20:16:03.090Z,24.90
2019-05-21T20:18:33.301Z,23.87
2019-05-21T20:21:08.670Z,22.20
2019-05-21T20:23:39.846Z,21.70
2019-05-21T20:26:14.338Z,22.10
2019-05-21T20:28:44.793Z,21.70
2019-05-21T20:31:16.680Z,22.97
2019-05-21T20:33:49.996Z,22.10
2019-05-21T20:36:21.345Z,23.30
2019-05-21T20:38:52.981Z,23.93
2019-05-21T20:41:24.892Z,20.43
2019-05-21T20:43:58.982Z,24.57
2019-05-21T20:46:28.339Z,21.73
2019-05-21T20:49:00.776Z,22.17
2019-05-21T20:51:31.863Z,19.97
2019-05-21T20:54:03.087Z,22.43
2019-05-21T20:56:36.214Z,22.40
2019-05-21T20:59:06.362Z,22.40
2019-05-21T21:01:36.557Z,22.70
2019-05-21T21:04:07.374Z,19.67
2019-05-21T21:06:38.088Z,21.03
2019-05-21T21:09:10.518Z,18.50
2019-05-21T21:11:41.594Z,20.93
2019-05-21T21:14:17.924Z,18.17
2019-05-21T21:16:46.677Z,19.07
2019-05-21T21:19:18.374Z,20.60
2019-05-21T21:21:49.144Z,20.90
2019-05-21T21:24:20.395Z,21.33
2019-05-21T21:26:51.194Z,20.47
2019-05-21T21:29:21.849Z,21.07
2019-05-21T21:31:52.023Z,19.53
2019-05-21T21:34:22.460Z,19.33
2019-05-21T21:36:53.409Z,21.70
2019-05-21T21:39:24.254Z,23.47
2019-05-21T21:41:54.586Z,20.10
2019-05-21T21:44:33.706Z,20.93
2019-05-21T21:46:57.431Z,20.00
2019-05-21T21:49:28.996Z,19.70
2019-05-21T21:52:00.654Z,22.53
2019-05-21T21:54:30.888Z,21.37
2019-05-21T21:57:01.217Z,21.13
2019-05-21T21:59:32.516Z,23.03
2019-05-21T22:02:17.252Z,21.67
2019-05-21T22:04:48.281Z,21.80
2019-05-21T22:07:18.529Z,21.83
2019-05-21T22:09:48.873Z,23.57
2019-05-21T22:12:19.950Z,23.10
2019-05-21T22:14:58.214Z,23.10
2019-05-21T22:17:29.803Z,26.37
2019-05-21T22:20:00.151Z,22.33
2019-05-21T22:22:31.723Z,24.83
2019-05-21T22:25:02.501Z,23.93
2019-05-21T22:27:33.936Z,25.80
2019-05-21T22:30:05.995Z,22.93
2019-05-21T22:32:38.243Z,20.90
2019-05-21T22:35:09.603Z,22.23
2019-05-21T22:37:39.868Z,22.73
2019-05-21T22:40:10.359Z,25.17
2019-05-21T22:42:41.518Z,22.77
2019-05-21T22:45:11.767Z,23.67
2019-05-21T22:47:42.885Z,24.27
2019-05-21T22:50:13.827Z,23.10
2019-05-21T22:52:44.471Z,21.57
2019-05-21T22:55:14.643Z,22.63
2019-05-21T22:57:46.005Z,24.70
2019-05-21T23:00:15.615Z,22.37
2019-05-21T23:02:46.624Z,24.23
2019-05-21T23:05:18.007Z,20.93
2019-05-21T23:07:48.263Z,25.07
2019-05-21T23:10:18.511Z,25.00
2019-05-21T23:12:49.274Z,22.00
2019-05-21T23:15:24.974Z,19.97
2019-05-21T23:18:02.141Z,24.13
2019-05-21T23:20:35.979Z,21.33
2019-05-21T23:23:10.984Z,22.77
2019-05-21T23:25:43.427Z,22.83
2019-05-21T23:28:13.861Z,22.73
2019-05-21T23:30:44.117Z,26.93
2019-05-21T23:33:15.835Z,22.40
2019-05-21T23:35:46.285Z,22.83
2019-05-21T23:38:20.614Z,29.63
2019-05-21T23:40:51.380Z,24.13
2019-05-21T23:43:22.036Z,24.90
2019-05-21T23:45:52.590Z,24.67
2019-05-21T23:48:23.145Z,27.30
2019-05-21T23:50:53.300Z,22.83
2019-05-21T23:53:25.126Z,25.50
2019-05-21T23:55:55.558Z,26.80
2019-05-21T23:58:25.949Z,25.73
